createdAt,value
2018-07-08T00:01:18.112Z,2.17
2018-07-08T00:03:48.036Z,2.73
2018-07-08T00:06:17.961Z,2.53
2018-07-08T00:08:48.212Z,2.50
2018-07-08T00:11:18.142Z,2.70
2018-07-08T00:13:48.091Z,2.37
2018-07-08T00:16:18.037Z,2.30
2018-07-08T00:18:48.357Z,2.20
2018-07-08T00:21:18.321Z,2.40
2018-07-08T00:23:48.285Z,2.00
2018-07-08T00:26:18.225Z,2.30
2018-07-08T00:28:48.431Z,2.27
2018-07-08T00:31:18.654Z,2.20
2018-07-08T00:33:48.638Z,2.43
2018-07-08T00:36:18.577Z,2.50
2018-07-08T00:38:49.038Z,2.37
2018-07-08T00:41:18.966Z,2.17
2018-07-08T00:43:48.894Z,2.13
2018-07-08T00:46:18.858Z,2.43
2018-07-08T00:48:49.122Z,2.20
2018-07-08T00:51:19.051Z,2.50
2018-07-08T00:53:48.982Z,2.60
2018-07-08T00:56:18.907Z,2.40
2018-07-08T00:58:49.638Z,2.20
2018-07-08T01:01:19.876Z,2.13
2018-07-08T01:03:49.802Z,2.10
2018-07-08T01:06:19.730Z,2.40
2018-07-08T01:08:49.752Z,2.20
2018-07-08T01:11:19.923Z,2.30
2018-07-08T01:13:49.851Z,2.10
2018-07-08T01:16:19.782Z,2.30
2018-07-08T01:18:49.730Z,2.13
2018-07-08T01:21:19.982Z,2.20
2018-07-08T01:23:49.915Z,2.20
2018-07-08T01:26:19.855Z,2.40
2018-07-08T01:28:49.811Z,2.50
2018-07-08T01:31:20.047Z,2.57
2018-07-08T01:33:50.029Z,2.47
2018-07-08T01:36:19.951Z,2.63
2018-07-08T01:38:49.863Z,2.70
2018-07-08T01:41:20.113Z,2.53
2018-07-08T01:43:50.042Z,2.80
2018-07-08T01:46:19.967Z,2.70
2018-07-08T01:48:49.946Z,2.60
2018-07-08T01:51:20.506Z,2.57
2018-07-08T01:53:50.419Z,2.70
2018-07-08T01:56:20.334Z,2.50
2018-07-08T01:58:50.269Z,2.90
2018-07-08T02:01:20.308Z,2.63
2018-07-08T02:03:50.702Z,2.50
2018-07-08T02:06:20.642Z,2.50
2018-07-08T02:08:50.565Z,3.10
2018-07-08T02:11:21.122Z,2.80
2018-07-08T02:13:52.103Z,2.50
2018-07-08T02:16:22.522Z,2.60
2018-07-08T02:18:52.610Z,2.63
2018-07-08T02:21:22.795Z,2.90
2018-07-08T02:23:52.718Z,2.60
2018-07-08T02:26:22.653Z,3.00
2018-07-08T02:28:53.034Z,2.77
2018-07-08T02:31:22.990Z,2.57
2018-07-08T02:33:53.090Z,2.80
2018-07-08T02:36:22.983Z,2.37
2018-07-08T02:38:52.910Z,2.73
2018-07-08T02:41:22.963Z,2.60
2018-07-08T02:43:53.239Z,2.30
2018-07-08T02:46:23.223Z,2.63
2018-07-08T02:48:53.351Z,2.70
2018-07-08T02:51:23.306Z,2.50
2018-07-08T02:53:53.235Z,2.90
2018-07-08T02:56:23.452Z,2.80
2018-07-08T02:58:53.391Z,2.60
2018-07-08T03:01:23.995Z,2.23
2018-07-08T03:03:53.918Z,2.50
2018-07-08T03:06:23.875Z,2.33
2018-07-08T03:08:53.824Z,2.40
2018-07-08T03:11:23.747Z,2.70
2018-07-08T03:13:53.854Z,2.77
2018-07-08T03:16:23.527Z,2.47
2018-07-08T03:18:53.355Z,2.60
2018-07-08T03:21:23.292Z,2.57
2018-07-08T03:23:53.215Z,2.70
2018-07-08T03:26:23.306Z,2.73
2018-07-08T03:28:53.277Z,2.60
2018-07-08T03:31:23.195Z,2.60
2018-07-08T03:33:53.130Z,2.33
2018-07-08T03:36:23.055Z,2.30
2018-07-08T03:38:53.002Z,2.30
2018-07-08T03:41:23.181Z,2.70
2018-07-08T03:43:53.121Z,2.60
2018-07-08T03:46:23.139Z,2.80
2018-07-08T03:48:53.070Z,3.30
2018-07-08T03:51:23.390Z,2.90
2018-07-08T03:53:53.326Z,3.10
2018-07-08T03:56:23.267Z,2.93
2018-07-08T03:58:53.667Z,3.00
2018-07-08T04:01:24.102Z,2.60
2018-07-08T04:03:54.071Z,3.20
2018-07-08T04:06:24.003Z,3.00
2018-07-08T04:08:53.934Z,2.63
2018-07-08T04:11:24.000Z,3.13
2018-07-08T04:13:53.934Z,2.80
2018-07-08T04:16:23.863Z,2.87
2018-07-08T04:18:53.878Z,2.90
2018-07-08T04:21:24.138Z,3.13
2018-07-08T04:23:54.099Z,3.20
2018-07-08T04:26:24.035Z,2.87
2018-07-08T04:28:54.294Z,3.40
2018-07-08T04:31:24.326Z,3.13
2018-07-08T04:33:54.252Z,3.27
2018-07-08T04:36:24.177Z,3.13
2018-07-08T04:38:54.103Z,3.03
2018-07-08T04:41:24.274Z,3.30
2018-07-08T04:43:54.408Z,3.00
2018-07-08T04:46:24.339Z,3.10
2018-07-08T04:48:54.257Z,3.10
2018-07-08T04:51:24.499Z,2.90
2018-07-08T04:53:54.419Z,3.30
2018-07-08T04:56:24.336Z,2.90
2018-07-08T04:58:54.283Z,3.27
2018-07-08T05:01:24.461Z,3.60
2018-07-08T05:03:54.389Z,3.63
2018-07-08T05:06:24.340Z,3.70
2018-07-08T05:08:54.255Z,3.87
2018-07-08T05:11:24.599Z,3.47
2018-07-08T05:13:54.539Z,3.30
2018-07-08T05:16:24.467Z,3.90
2018-07-08T05:18:54.395Z,3.37
2018-07-08T05:21:24.450Z,3.43
2018-07-08T05:23:54.488Z,3.17
2018-07-08T05:26:24.407Z,3.40
2018-07-08T05:28:54.650Z,3.43
2018-07-08T05:31:24.895Z,3.40
2018-07-08T05:33:54.822Z,3.30
2018-07-08T05:36:24.762Z,3.20
2018-07-08T05:38:54.695Z,3.13
2018-07-08T05:41:24.929Z,2.87
2018-07-08T05:43:54.874Z,2.90
2018-07-08T05:46:24.851Z,3.03
2018-07-08T05:48:54.778Z,3.10
2018-07-08T05:51:25.055Z,3.00
2018-07-08T05:53:54.994Z,3.03
2018-07-08T05:56:24.911Z,2.80
2018-07-08T05:58:55.004Z,3.37
2018-07-08T06:01:25.914Z,2.77
2018-07-08T06:03:55.897Z,3.23
2018-07-08T06:06:25.819Z,2.87
2018-07-08T06:08:55.757Z,2.57
2018-07-08T06:11:26.383Z,2.50
2018-07-08T06:13:56.327Z,3.17
2018-07-08T06:16:26.304Z,2.70
2018-07-08T06:18:56.245Z,2.50
2018-07-08T06:21:26.438Z,2.80
2018-07-08T06:23:56.366Z,2.70
2018-07-08T06:26:26.048Z,2.80
2018-07-08T06:28:55.898Z,2.93
2018-07-08T06:31:26.072Z,2.70
2018-07-08T06:33:56.159Z,2.70
2018-07-08T06:36:26.147Z,2.60
2018-07-08T06:38:56.075Z,3.13
2018-07-08T06:41:26.286Z,2.40
2018-07-08T06:43:56.235Z,2.90
2018-07-08T06:46:26.171Z,2.77
2018-07-08T06:48:56.091Z,3.10
2018-07-08T06:51:26.433Z,2.90
2018-07-08T06:53:56.362Z,2.83
2018-07-08T06:56:26.304Z,2.80
2018-07-08T06:58:56.286Z,2.80
2018-07-08T07:01:26.411Z,2.80
2018-07-08T07:03:56.331Z,2.70
2018-07-08T07:06:26.268Z,2.58
2018-07-08T07:08:56.200Z,2.50
2018-07-08T07:11:26.489Z,2.40
2018-07-08T07:13:56.422Z,2.50
2018-07-08T07:16:26.365Z,2.58
2018-07-08T07:18:56.277Z,2.72
2018-07-08T07:21:26.670Z,2.30
2018-07-08T07:23:56.590Z,2.47
2018-07-08T07:26:26.588Z,2.62
2018-07-08T07:28:56.515Z,2.47
2018-07-08T07:31:26.647Z,2.40
2018-07-08T07:33:56.595Z,2.62
2018-07-08T07:36:26.554Z,2.80
2018-07-08T07:38:56.466Z,2.80
2018-07-08T07:41:26.870Z,6.70
2018-07-08T07:43:56.803Z,8.00
2018-07-08T07:46:26.754Z,2.60
2018-07-08T07:48:56.898Z,2.40
2018-07-08T07:51:27.180Z,2.70
2018-07-08T07:53:57.141Z,2.22
2018-07-08T07:56:27.078Z,2.17
2018-07-08T07:58:57.104Z,2.30
2018-07-08T08:01:27.208Z,2.42
2018-07-08T08:03:57.122Z,2.40
2018-07-08T08:06:27.082Z,2.10
2018-07-08T08:08:57.008Z,2.17
2018-07-08T08:11:27.160Z,2.33
2018-07-08T08:14:01.778Z,2.10
2018-07-08T08:16:31.715Z,2.20
2018-07-08T08:19:02.607Z,2.42
2018-07-08T08:21:32.939Z,2.60
2018-07-08T08:24:02.855Z,2.60
2018-07-08T08:26:32.879Z,2.55
2018-07-08T08:29:02.704Z,2.37
2018-07-08T08:31:32.649Z,2.45
2018-07-08T08:35:10.334Z,2.65
2018-07-08T08:37:43.382Z,2.37
2018-07-08T08:40:14.123Z,2.72
2018-07-08T08:42:44.066Z,3.17
2018-07-08T08:45:15.146Z,2.70
2018-07-08T08:47:45.091Z,2.55
2018-07-08T08:50:15.366Z,2.50
2018-07-08T08:52:45.298Z,7.05
2018-07-08T08:55:15.326Z,6.22
2018-07-08T08:57:45.270Z,2.80
2018-07-08T09:00:16.942Z,2.80
2018-07-08T09:02:46.951Z,2.83
2018-07-08T09:05:16.887Z,3.08
2018-07-08T09:07:46.832Z,2.75
2018-07-08T09:10:16.764Z,2.90
2018-07-08T09:12:46.706Z,2.20
2018-07-08T09:15:16.627Z,2.70
2018-07-08T09:17:46.558Z,2.77
2018-07-08T09:20:16.571Z,2.40
2018-07-08T09:22:46.541Z,2.55
2018-07-08T09:25:16.462Z,2.55
2018-07-08T09:27:46.414Z,2.40
2018-07-08T09:30:16.375Z,2.37
2018-07-08T09:32:46.309Z,2.60
2018-07-08T09:35:16.235Z,2.65
2018-07-08T09:37:46.282Z,2.75
2018-07-08T09:40:16.230Z,2.87
2018-07-08T09:42:46.166Z,2.85
2018-07-08T09:45:16.099Z,6.67
2018-07-08T09:47:46.143Z,2.95
2018-07-08T09:50:16.058Z,2.90
2018-07-08T09:52:46.001Z,2.85
2018-07-08T09:55:15.913Z,2.77
2018-07-08T09:57:45.648Z,2.92
2018-07-08T10:00:15.447Z,2.70
2018-07-08T10:02:45.383Z,2.70
2018-07-08T10:05:15.306Z,3.00
2018-07-08T10:07:45.258Z,5.25
2018-07-08T10:10:15.209Z,2.60
2018-07-08T10:12:45.146Z,2.50
2018-07-08T10:15:15.067Z,2.30
2018-07-08T10:17:45.061Z,2.27
2018-07-08T10:20:14.910Z,2.17
2018-07-08T10:22:44.846Z,2.30
2018-07-08T10:25:14.819Z,2.30
2018-07-08T10:28:15.003Z,2.05
2018-07-08T10:30:45.147Z,2.10
2018-07-08T10:33:15.084Z,2.10
2018-07-08T10:35:58.942Z,1.90
2018-07-08T10:38:28.898Z,2.25
2018-07-08T10:40:58.843Z,2.27
2018-07-08T10:43:28.926Z,1.80
2018-07-08T10:45:58.736Z,2.00
2018-07-08T10:48:28.719Z,5.97
2018-07-08T10:50:58.648Z,2.30
2018-07-08T10:53:28.582Z,2.20
2018-07-08T10:55:58.508Z,1.98
2018-07-08T10:58:28.454Z,5.05
2018-07-08T11:00:58.898Z,3.22
2018-07-08T11:03:28.882Z,2.45
2018-07-08T11:05:58.578Z,2.30
2018-07-08T11:08:28.382Z,2.05
2018-07-08T11:10:58.347Z,2.05
2018-07-08T11:13:28.427Z,2.10
2018-07-08T11:15:58.626Z,2.00
2018-07-08T11:18:28.563Z,2.00
2018-07-08T11:20:58.560Z,2.12
2018-07-08T11:23:28.436Z,2.37
2018-07-08T11:25:58.354Z,2.00
2018-07-08T11:28:28.315Z,1.90
2018-07-08T11:30:58.214Z,2.20
2018-07-08T11:33:28.144Z,1.70
2018-07-08T11:35:58.074Z,1.80
2018-07-08T11:38:28.011Z,1.92
2018-07-08T11:40:57.943Z,1.90
2018-07-08T11:43:27.892Z,1.90
2018-07-08T11:45:57.814Z,1.65
2018-07-08T11:48:27.794Z,1.80
2018-07-08T11:50:57.726Z,2.00
2018-07-08T11:53:27.659Z,1.77
2018-07-08T11:55:57.582Z,2.00
2018-07-08T11:58:27.514Z,2.40
2018-07-08T12:00:57.443Z,2.20
2018-07-08T12:03:28.454Z,2.30
2018-07-08T12:05:58.379Z,2.50
2018-07-08T12:08:28.318Z,2.30
2018-07-08T12:10:58.255Z,2.27
2018-07-08T12:13:28.198Z,2.12
2018-07-08T12:15:58.123Z,2.30
2018-07-08T12:18:28.059Z,2.30
2018-07-08T12:20:57.996Z,2.33
2018-07-08T12:23:27.935Z,2.85
2018-07-08T12:25:57.917Z,2.20
2018-07-08T12:28:27.863Z,2.00
2018-07-08T12:30:57.792Z,2.30
2018-07-08T12:33:27.765Z,2.30
2018-07-08T12:35:57.678Z,2.45
2018-07-08T12:38:27.623Z,3.10
2018-07-08T12:40:57.561Z,2.40
2018-07-08T12:43:27.486Z,2.40
2018-07-08T12:45:57.658Z,2.40
2018-07-08T12:48:27.595Z,2.40
2018-07-08T12:50:57.532Z,2.12
2018-07-08T12:53:27.478Z,2.40
2018-07-08T12:55:57.459Z,2.52
2018-07-08T12:58:27.562Z,2.40
2018-07-08T13:00:57.502Z,2.42
2018-07-08T13:03:27.443Z,2.40
2018-07-08T13:05:57.474Z,2.35
2018-07-08T13:08:27.418Z,2.40
2018-07-08T13:10:57.370Z,2.50
2018-07-08T13:13:27.294Z,2.25
2018-07-08T13:15:57.231Z,2.30
2018-07-08T13:18:27.163Z,2.30
2018-07-08T13:20:57.107Z,2.47
2018-07-08T13:23:27.036Z,2.42
2018-07-08T13:25:57.282Z,2.80
2018-07-08T13:28:27.194Z,2.50
2018-07-08T13:30:57.159Z,2.45
2018-07-08T13:33:27.169Z,2.52
2018-07-08T13:35:57.095Z,2.37
2018-07-08T13:38:27.078Z,2.72
2018-07-08T13:40:57.046Z,2.67
2018-07-08T13:43:26.998Z,2.60
2018-07-08T13:45:57.016Z,2.67
2018-07-08T13:48:26.938Z,2.87
2018-07-08T13:50:56.903Z,2.50
2018-07-08T13:53:26.862Z,2.37
2018-07-08T13:55:56.852Z,2.80
2018-07-08T13:58:26.790Z,2.58
2018-07-08T14:00:56.746Z,2.58
2018-07-08T14:03:26.682Z,2.42
2018-07-08T14:05:56.675Z,2.40
2018-07-08T14:08:26.632Z,3.47
2018-07-08T14:10:56.559Z,2.22
2018-07-08T14:13:26.490Z,2.22
2018-07-08T14:15:56.434Z,2.20
2018-07-08T14:18:26.365Z,2.50
2018-07-08T14:20:56.295Z,2.30
2018-07-08T14:23:26.220Z,2.20
2018-07-08T14:25:56.154Z,2.10
2018-07-08T14:28:26.354Z,1.55
2018-07-08T14:30:56.415Z,1.80
2018-07-08T14:33:26.395Z,1.65
2018-07-08T14:35:56.307Z,1.60
2018-07-08T14:38:26.345Z,1.60
2018-07-08T14:40:56.279Z,1.50
2018-07-08T14:43:26.220Z,1.65
2018-07-08T14:45:56.161Z,1.50
2018-07-08T14:48:26.075Z,1.70
2018-07-08T14:50:56.004Z,1.52
2018-07-08T14:53:25.930Z,1.70
2018-07-08T14:55:55.866Z,1.67
2018-07-08T14:58:25.804Z,1.67
2018-07-08T15:00:55.729Z,1.40
2018-07-08T15:03:25.659Z,1.40
2018-07-08T15:05:55.599Z,1.70
2018-07-08T15:08:25.639Z,2.55
2018-07-08T15:10:55.680Z,1.75
2018-07-08T15:13:25.603Z,1.70
2018-07-08T15:15:55.656Z,1.70
2018-07-08T15:18:25.527Z,1.50
2018-07-08T15:20:55.643Z,1.40
2018-07-08T15:23:25.491Z,1.55
2018-07-08T15:25:55.423Z,1.60
2018-07-08T15:28:25.380Z,1.20
2018-07-08T15:30:55.516Z,1.47
2018-07-08T15:33:25.447Z,1.57
2018-07-08T15:35:55.427Z,1.52
2018-07-08T15:38:25.348Z,1.45
2018-07-08T15:40:55.295Z,1.55
2018-07-08T15:43:25.219Z,1.32
2018-07-08T15:45:55.170Z,1.30
2018-07-08T15:48:25.090Z,1.40
2018-07-08T15:50:55.106Z,1.50
2018-07-08T15:53:25.051Z,1.30
2018-07-08T15:55:55.047Z,1.30
2018-07-08T15:58:24.977Z,1.40
2018-07-08T16:00:54.902Z,1.50
2018-07-08T16:03:24.820Z,1.40
2018-07-08T16:05:54.767Z,1.47
2018-07-08T16:08:24.662Z,1.40
2018-07-08T16:10:54.635Z,1.55
2018-07-08T16:13:24.554Z,1.37
2018-07-08T16:15:54.498Z,1.40
2018-07-08T16:18:24.569Z,1.32
2018-07-08T16:20:54.571Z,1.40
2018-07-08T16:23:24.506Z,1.55
2018-07-08T16:25:54.464Z,1.60
2018-07-08T16:28:24.362Z,1.98
2018-07-08T16:30:54.510Z,1.72
2018-07-08T16:33:24.503Z,1.50
2018-07-08T16:35:56.970Z,1.50
2018-07-08T16:38:26.914Z,1.45
2018-07-08T16:40:56.955Z,1.40
2018-07-08T16:43:26.999Z,1.60
2018-07-08T16:45:56.913Z,1.60
2018-07-08T16:48:26.844Z,1.60
2018-07-08T16:50:56.561Z,1.42
2018-07-08T16:53:26.342Z,1.42
2018-07-08T16:55:56.258Z,1.57
2018-07-08T16:58:26.210Z,1.45
2018-07-08T17:00:56.126Z,1.60
2018-07-08T17:03:26.151Z,1.30
2018-07-08T17:05:56.067Z,1.47
2018-07-08T17:08:26.040Z,1.40
2018-07-08T17:10:55.964Z,1.37
2018-07-08T17:13:25.903Z,1.55
2018-07-08T17:15:55.974Z,1.50
2018-07-08T17:18:25.923Z,1.70
2018-07-08T17:20:55.841Z,1.60
2018-07-08T17:23:25.860Z,1.60
2018-07-08T17:25:55.698Z,1.50
2018-07-08T17:28:25.636Z,1.65
2018-07-08T17:30:55.678Z,2.05
2018-07-08T17:33:25.644Z,1.70
2018-07-08T17:35:55.562Z,1.77
2018-07-08T17:38:25.491Z,1.60
2018-07-08T17:40:55.432Z,1.72
2018-07-08T17:43:25.478Z,1.50
2018-07-08T17:45:55.401Z,1.70
2018-07-08T17:48:25.326Z,1.70
2018-07-08T17:50:55.261Z,1.82
2018-07-08T17:53:25.190Z,2.00
2018-07-08T17:55:55.113Z,1.75
2018-07-08T17:58:25.203Z,1.62
2018-07-08T18:00:55.131Z,1.77
2018-07-08T18:03:25.138Z,1.70
2018-07-08T18:05:55.002Z,2.05
2018-07-08T18:08:24.982Z,1.60
2018-07-08T18:10:54.908Z,1.70
2018-07-08T18:13:24.838Z,1.60
2018-07-08T18:15:54.749Z,1.75
2018-07-08T18:18:24.695Z,1.80
2018-07-08T18:20:54.722Z,1.40
2018-07-08T18:23:24.696Z,1.80
2018-07-08T18:25:54.619Z,1.60
2018-07-08T18:28:24.682Z,2.10
2018-07-08T18:30:54.595Z,1.60
2018-07-08T18:33:24.555Z,1.62
2018-07-08T18:35:54.454Z,1.52
2018-07-08T18:38:24.393Z,1.50
2018-07-08T18:40:54.327Z,1.90
2018-07-08T18:43:24.471Z,1.50
2018-07-08T18:45:54.745Z,1.70
2018-07-08T18:48:24.963Z,1.73
2018-07-08T18:50:54.939Z,1.50
2018-07-08T18:53:24.904Z,1.63
2018-07-08T18:55:54.811Z,1.80
2018-07-08T18:58:24.867Z,1.57
2018-07-08T19:00:55.199Z,1.60
2018-07-08T19:03:25.548Z,1.70
2018-07-08T19:05:55.915Z,1.50
2018-07-08T19:08:25.966Z,1.80
2018-07-08T19:10:55.934Z,1.60
2018-07-08T19:13:25.862Z,1.60
2018-07-08T19:15:55.823Z,1.90
2018-07-08T19:18:25.826Z,1.70
2018-07-08T19:20:55.946Z,1.87
2018-07-08T19:23:25.940Z,1.60
2018-07-08T19:25:55.985Z,1.53
2018-07-08T19:28:26.352Z,1.50
2018-07-08T19:30:56.420Z,1.57
2018-07-08T19:33:26.531Z,1.80
2018-07-08T19:35:56.541Z,2.00
2018-07-08T19:38:26.566Z,1.73
2018-07-08T19:40:56.491Z,1.80
2018-07-08T19:43:26.507Z,1.70
2018-07-08T19:45:56.532Z,1.60
2018-07-08T19:48:26.761Z,2.00
2018-07-08T19:50:56.850Z,1.80
2018-07-08T19:53:26.889Z,1.93
2018-07-08T19:55:56.951Z,1.63
2018-07-08T19:58:27.230Z,1.63
2018-07-08T20:00:57.149Z,1.47
2018-07-08T20:03:27.106Z,1.50
2018-07-08T20:05:57.022Z,1.27
2018-07-08T20:08:26.954Z,1.70
2018-07-08T20:10:56.907Z,1.40
2018-07-08T20:13:26.918Z,1.67
2018-07-08T20:15:56.855Z,1.70
2018-07-08T20:18:26.837Z,1.70
2018-07-08T20:20:56.887Z,1.60
2018-07-08T20:23:26.889Z,1.40
2018-07-08T20:25:57.046Z,1.50
2018-07-08T20:28:27.017Z,1.73
2018-07-08T20:30:57.164Z,1.50
2018-07-08T20:33:27.087Z,1.53
2018-07-08T20:35:57.147Z,1.40
2018-07-08T20:38:27.070Z,1.50
2018-07-08T20:40:57.003Z,1.60
2018-07-08T20:43:26.936Z,1.93
2018-07-08T20:45:56.868Z,1.40
2018-07-08T20:48:26.790Z,1.40
2018-07-08T20:50:56.723Z,1.60
2018-07-08T20:53:26.978Z,1.30
2018-07-08T20:55:57.059Z,1.20
2018-07-08T20:58:27.003Z,1.50
2018-07-08T21:00:56.966Z,1.70
2018-07-08T21:03:27.071Z,1.60
2018-07-08T21:05:57.156Z,1.60
2018-07-08T21:08:27.242Z,1.30
2018-07-08T21:10:57.164Z,1.33
2018-07-08T21:13:27.554Z,1.40
2018-07-08T21:15:57.526Z,1.80
2018-07-08T21:18:27.535Z,1.33
2018-07-08T21:20:57.464Z,1.50
2018-07-08T21:23:27.433Z,1.50
2018-07-08T21:25:57.427Z,1.60
2018-07-08T21:28:27.350Z,1.70
2018-07-08T21:30:57.286Z,1.43
2018-07-08T21:33:27.531Z,1.50
2018-07-08T21:35:57.446Z,1.40
2018-07-08T21:38:28.758Z,1.57
2018-07-08T21:40:58.766Z,1.40
2018-07-08T21:43:28.699Z,1.40
2018-07-08T21:45:58.614Z,1.50
2018-07-08T21:48:28.527Z,1.50
2018-07-08T21:50:58.455Z,1.60
2018-07-08T21:53:28.363Z,1.50
2018-07-08T21:55:58.282Z,1.40
2018-07-08T21:58:28.244Z,1.30
2018-07-08T22:01:15.889Z,1.20
2018-07-08T22:03:47.334Z,1.60
2018-07-08T22:06:17.839Z,1.40
2018-07-08T22:08:47.766Z,1.70
2018-07-08T22:11:17.842Z,1.40
2018-07-08T22:13:47.723Z,1.30
2018-07-08T22:16:17.753Z,1.40
2018-07-08T22:18:47.747Z,1.50
2018-07-08T22:21:17.694Z,1.30
2018-07-08T22:23:47.611Z,1.20
2018-07-08T22:26:17.535Z,1.67
2018-07-08T22:28:47.586Z,1.33
2018-07-08T22:31:17.527Z,1.40
2018-07-08T22:33:47.537Z,1.53
2018-07-08T22:36:17.478Z,1.40
2018-07-08T22:38:47.389Z,1.40
2018-07-08T22:41:17.320Z,1.40
2018-07-08T22:43:47.275Z,1.43
2018-07-08T22:46:17.211Z,1.30
2018-07-08T22:48:47.130Z,1.63
2018-07-08T22:51:17.067Z,1.30
2018-07-08T22:53:47.620Z,1.43
2018-07-08T22:56:17.603Z,1.30
2018-07-08T22:58:47.535Z,1.30
2018-07-08T23:01:34.423Z,1.50
2018-07-08T23:04:04.327Z,1.47
2018-07-08T23:06:35.174Z,1.40
2018-07-08T23:09:06.218Z,1.60
2018-07-08T23:11:36.158Z,1.47
2018-07-08T23:14:06.087Z,1.60
2018-07-08T23:16:36.030Z,1.30
2018-07-08T23:19:05.958Z,1.50
2018-07-08T23:21:35.730Z,1.80
2018-07-08T23:24:05.534Z,1.70
2018-07-08T23:26:35.459Z,1.60
2018-07-08T23:29:05.391Z,1.53
2018-07-08T23:31:35.375Z,1.40
2018-07-08T23:34:05.299Z,1.50
2018-07-08T23:36:35.232Z,1.40
2018-07-08T23:39:05.584Z,1.57
2018-07-08T23:41:35.517Z,1.57
2018-07-08T23:44:05.459Z,1.50
2018-07-08T23:46:35.378Z,1.53
2018-07-08T23:49:05.302Z,1.53
2018-07-08T23:51:35.232Z,1.33
2018-07-08T23:54:05.262Z,1.67
2018-07-08T23:56:35.187Z,1.60
2018-07-08T23:59:05.158Z,1.63
